Time;durP1;ratioP1;P1;durP2;ratioP2;P2;SDS_P1;SDS_P2;PMS_P1;PMS_P2;Temp;Humidity;BMP_temperature;BMP_pressure;BME280_temperature;BME280_humidity;BME280_pressure;Samples;Min_cycle;Max_cycle;Signal;HPM_P1;HPM_P2
2021/07/16 00:00:44;;;;;;;8.73;1.02;;;16.80;99.90;;;;;;4977983;28;20047;-89
2021/07/16 00:03:10;;;;;;;6.88;1.10;;;16.70;99.90;;;;;;4979792;28;20053;-89
2021/07/16 00:05:36;;;;;;;3.63;1.13;;;16.60;99.90;;;;;;4983107;28;20449;-89
2021/07/16 00:08:02;;;;;;;4.35;0.95;;;16.50;99.90;;;;;;4982508;28;20094;-89
2021/07/16 00:10:27;;;;;;;7.45;1.15;;;16.40;99.90;;;;;;4982507;28;20018;-90
2021/07/16 00:12:53;;;;;;;9.02;1.60;;;16.40;99.90;;;;;;4982377;28;20019;-89
2021/07/16 00:15:20;;;;;;;5.38;1.15;;;16.30;99.90;;;;;;4982473;28;20117;-89
2021/07/16 00:17:47;;;;;;;2.83;0.98;;;16.20;99.90;;;;;;4981944;28;20026;-89
2021/07/16 00:20:13;;;;;;;4.47;0.90;;;16.30;99.90;;;;;;4982368;28;20030;-90
2021/07/16 00:22:39;;;;;;;4.10;1.00;;;16.30;99.90;;;;;;4982390;28;20141;-90
2021/07/16 00:25:07;;;;;;;2.42;1.10;;;16.30;99.90;;;;;;4982577;28;20030;-89
2021/07/16 00:27:33;;;;;;;3.45;1.00;;;16.40;99.90;;;;;;4982518;28;20026;-89
2021/07/16 00:29:59;;;;;;;2.72;1.10;;;16.40;99.90;;;;;;4999830;28;20027;-89
2021/07/16 00:32:25;;;;;;;2.20;0.75;;;16.50;99.90;;;;;;4982032;28;20030;-89
2021/07/16 00:34:51;;;;;;;7.53;1.05;;;16.50;99.90;;;;;;4998658;28;20037;-89
2021/07/16 00:37:17;;;;;;;7.57;1.60;;;16.50;99.90;;;;;;4999463;28;20022;-89
2021/07/16 00:39:43;;;;;;;6.47;1.40;;;16.40;99.90;;;;;;4999463;28;20081;-89
2021/07/16 00:42:08;;;;;;;6.15;1.20;;;16.50;99.90;;;;;;4982253;28;20417;-90
2021/07/16 00:44:36;;;;;;;5.43;1.50;;;16.60;99.90;;;;;;4999591;28;20026;-90
2021/07/16 00:47:05;;;;;;;6.95;1.15;;;16.40;99.90;;;;;;4999567;28;20452;-90
2021/07/16 00:49:32;;;;;;;2.28;1.00;;;16.40;99.90;;;;;;4981980;28;20058;-90
2021/07/16 00:51:57;;;;;;;8.25;1.17;;;16.50;99.90;;;;;;4981726;28;20027;-90
2021/07/16 00:54:23;;;;;;;2.45;1.20;;;16.50;99.90;;;;;;4981949;28;20104;-90
2021/07/16 00:56:49;;;;;;;3.97;1.10;;;16.40;99.90;;;;;;4981929;28;20026;-89
2021/07/16 00:59:16;;;;;;;15.80;1.58;;;16.30;99.90;;;;;;4980564;28;20084;-90
2021/07/16 01:01:43;;;;;;;9.85;1.42;;;16.40;99.90;;;;;;4979312;28;20034;-89
2021/07/16 01:04:09;;;;;;;6.05;1.40;;;16.30;99.90;;;;;;4979706;28;20502;-90
2021/07/16 01:06:34;;;;;;;6.50;1.60;;;16.00;99.90;;;;;;4979436;28;20397;-90
2021/07/16 01:09:00;;;;;;;10.90;1.90;;;15.90;99.90;;;;;;4996871;28;20105;-90
2021/07/16 01:11:26;;;;;;;7.43;2.22;;;15.90;99.90;;;;;;4979514;28;20125;-89
2021/07/16 01:13:53;;;;;;;5.68;2.03;;;15.70;99.90;;;;;;4978689;28;20034;-90
2021/07/16 01:16:18;;;;;;;5.75;1.90;;;15.70;99.90;;;;;;4996939;28;20038;-90
2021/07/16 01:18:44;;;;;;;6.00;2.00;;;15.70;99.90;;;;;;4979153;28;20117;-90
2021/07/16 01:21:12;;;;;;;3.17;1.90;;;15.80;99.90;;;;;;4979308;28;20092;-90
2021/07/16 01:23:38;;;;;;;7.95;1.90;;;15.90;99.90;;;;;;4979405;28;20045;-90
2021/07/16 01:26:06;;;;;;;4.03;2.33;;;16.00;99.90;;;;;;4979270;28;20027;-90
2021/07/16 01:28:35;;;;;;;3.20;1.55;;;16.00;99.90;;;;;;4979426;28;20026;-90
2021/07/16 01:31:01;;;;;;;7.95;2.33;;;16.00;99.90;;;;;;4979014;28;20035;-89
2021/07/16 01:33:27;;;;;;;24.05;2.75;;;16.00;99.90;;;;;;4978947;28;20033;-90
2021/07/16 01:35:52;;;;;;;28.88;2.53;;;15.80;99.90;;;;;;4978820;28;20176;-90
2021/07/16 01:38:18;;;;;;;20.20;2.42;;;15.90;99.90;;;;;;4979020;28;20026;-89
2021/07/16 01:40:44;;;;;;;106.95;4.22;;;16.00;99.90;;;;;;4978857;28;20019;-90
2021/07/16 01:43:11;;;;;;;46.33;2.63;;;16.10;99.90;;;;;;4978977;28;20029;-90
2021/07/16 01:45:39;;;;;;;83.10;4.15;;;16.00;99.90;;;;;;4979754;28;20019;-90
2021/07/16 01:48:08;;;;;;;11.30;2.60;;;15.90;99.90;;;;;;5001961;28;20020;-88
2021/07/16 01:50:35;;;;;;;7.38;2.70;;;15.90;99.90;;;;;;4999482;28;20038;-89
2021/07/16 01:53:02;;;;;;;4.00;2.20;;;16.10;99.90;;;;;;4981023;28;20486;-90
2021/07/16 01:55:30;;;;;;;21.15;2.95;;;16.10;99.90;;;;;;4980256;28;20027;-90
2021/07/16 01:57:57;;;;;;;5.65;1.67;;;16.10;99.90;;;;;;4979263;28;20022;-90
2021/07/16 02:00:26;;;;;;;12.77;2.10;;;16.20;99.90;;;;;;4978561;28;20030;-90
2021/07/16 02:02:54;;;;;;;26.15;2.80;;;16.20;99.90;;;;;;4978639;28;20402;-90
2021/07/16 02:05:20;;;;;;;14.13;2.53;;;16.10;99.90;;;;;;4978256;28;20019;-90
2021/07/16 02:07:49;;;;;;;16.08;2.15;;;16.10;99.90;;;;;;4978348;28;20026;-90
2021/07/16 02:10:16;;;;;;;7.10;1.75;;;16.10;99.90;;;;;;4978378;28;20085;-90
2021/07/16 02:12:42;;;;;;;5.57;1.48;;;16.20;99.90;;;;;;4978638;28;20026;-89
2021/07/16 02:15:19;;;;;;;5.40;1.40;;;16.10;99.90;;;;;;4978304;28;20026;-90
2021/07/16 02:17:46;;;;;;;4.18;1.50;;;16.10;99.90;;;;;;4978718;28;20022;-89
2021/07/16 02:20:23;;;;;;;5.13;1.60;;;16.20;99.90;;;;;;4995484;28;20080;-89
2021/07/16 02:22:51;;;;;;;4.07;1.92;;;16.20;99.90;;;;;;4978534;28;20076;-90
2021/07/16 02:25:17;;;;;;;4.82;1.33;;;16.00;99.90;;;;;;4995098;28;20026;-90
2021/07/16 02:27:48;;;;;;;3.97;1.58;;;16.10;99.90;;;;;;4995063;28;20486;-89
2021/07/16 02:30:16;;;;;;;2.90;1.73;;;16.00;99.90;;;;;;4995392;28;20126;-90
2021/07/16 02:32:43;;;;;;;6.53;1.40;;;16.10;99.90;;;;;;4977844;28;20031;-89
2021/07/16 02:35:10;;;;;;;4.35;1.60;;;16.00;99.90;;;;;;4978458;28;20118;-90
2021/07/16 02:37:36;;;;;;;5.55;1.50;;;15.80;99.90;;;;;;4977665;28;20023;-90
2021/07/16 02:40:04;;;;;;;3.05;1.42;;;15.90;99.90;;;;;;4995532;28;20488;-90
2021/07/16 02:42:30;;;;;;;2.92;1.27;;;15.70;99.90;;;;;;4977780;28;20022;-90
2021/07/16 02:44:55;;;;;;;4.55;1.35;;;15.80;99.90;;;;;;4977686;28;20088;-90
2021/07/16 02:47:21;;;;;;;3.88;1.48;;;15.80;99.90;;;;;;4977861;28;20109;-90
2021/07/16 02:49:47;;;;;;;7.57;1.83;;;15.80;99.90;;;;;;4977627;28;20026;-89
2021/07/16 02:52:12;;;;;;;4.72;1.77;;;15.80;99.90;;;;;;4977707;28;20053;-90
2021/07/16 02:54:38;;;;;;;5.22;2.38;;;15.90;99.90;;;;;;4994855;28;20036;-90
2021/07/16 02:57:04;;;;;;;12.85;1.88;;;15.90;99.90;;;;;;4977612;28;20030;-90
2021/07/16 02:59:30;;;;;;;4.15;1.63;;;15.80;99.90;;;;;;4977372;28;20029;-90
2021/07/16 03:01:56;;;;;;;7.22;1.77;;;15.80;99.90;;;;;;4977156;28;20026;-90
2021/07/16 03:04:22;;;;;;;5.13;1.73;;;15.60;99.90;;;;;;4977115;28;20053;-90
2021/07/16 03:06:48;;;;;;;2.53;1.45;;;15.60;99.90;;;;;;4994453;28;20022;-90
2021/07/16 03:09:14;;;;;;;6.57;1.40;;;15.60;99.90;;;;;;4977308;28;20030;-90
2021/07/16 03:11:40;;;;;;;4.03;2.08;;;15.70;99.90;;;;;;4977052;28;20026;-90
2021/07/16 03:14:05;;;;;;;3.40;1.85;;;15.70;99.90;;;;;;4977072;28;20497;-90
2021/07/16 03:16:32;;;;;;;3.05;1.70;;;15.70;99.90;;;;;;4994389;28;20084;-90
2021/07/16 03:18:59;;;;;;;2.67;1.67;;;15.80;99.90;;;;;;4976914;28;20034;-90
2021/07/16 03:21:24;;;;;;;6.95;1.73;;;15.70;99.90;;;;;;4976998;28;20030;-90
2021/07/16 03:23:50;;;;;;;5.68;1.98;;;15.80;99.90;;;;;;4976864;28;20023;-90
2021/07/16 03:26:16;;;;;;;5.00;1.73;;;15.80;99.90;;;;;;4976738;28;20019;-90
2021/07/16 03:28:42;;;;;;;8.27;2.22;;;15.80;99.90;;;;;;4976838;28;20081;-89
2021/07/16 03:31:08;;;;;;;6.30;1.70;;;15.80;99.90;;;;;;4976822;28;20033;-88
2021/07/16 03:33:34;;;;;;;5.18;2.47;;;15.80;99.90;;;;;;4994271;28;20022;-89
2021/07/16 03:36:00;;;;;;;8.80;2.55;;;15.70;99.90;;;;;;4976904;28;20060;-90
2021/07/16 03:38:25;;;;;;;4.22;2.10;;;15.80;99.90;;;;;;4976825;28;20030;-90
2021/07/16 03:40:55;;;;;;;3.85;2.30;;;15.80;99.90;;;;;;4976539;28;20470;-90
2021/07/16 03:43:21;;;;;;;7.13;3.10;;;15.80;99.90;;;;;;4976570;28;20470;-90
2021/07/16 03:45:47;;;;;;;6.22;2.67;;;15.90;99.90;;;;;;4976586;28;20092;-89
2021/07/16 03:48:12;;;;;;;11.05;2.50;;;15.60;99.90;;;;;;4976503;28;20474;-89
2021/07/16 03:50:38;;;;;;;7.43;2.10;;;15.60;99.90;;;;;;4976463;28;20455;-90
2021/07/16 03:53:05;;;;;;;4.32;2.80;;;15.50;99.90;;;;;;4976500;28;20030;-90
2021/07/16 03:55:30;;;;;;;7.05;2.92;;;15.40;99.90;;;;;;4976490;28;20029;-89
2021/07/16 03:57:57;;;;;;;5.88;2.63;;;15.30;99.90;;;;;;4976498;28;20034;-90
2021/07/16 04:00:29;;;;;;;5.57;2.28;;;15.30;99.90;;;;;;4976450;28;20034;-89
2021/07/16 04:02:58;;;;;;;6.57;2.22;;;15.50;99.90;;;;;;4998423;28;20048;-87
2021/07/16 04:05:24;;;;;;;6.47;2.42;;;15.50;99.90;;;;;;4998638;28;20029;-89
2021/07/16 04:07:52;;;;;;;6.82;2.78;;;15.60;99.90;;;;;;4977738;28;20505;-90
2021/07/16 04:10:20;;;;;;;3.13;2.33;;;15.60;99.90;;;;;;4977429;28;20065;-90
2021/07/16 04:12:55;;;;;;;3.72;2.22;;;15.70;99.90;;;;;;4976939;28;20026;-89
2021/07/16 04:15:22;;;;;;;6.43;2.47;;;15.80;99.90;;;;;;4994394;28;20030;-89
2021/07/16 04:17:47;;;;;;;6.85;2.00;;;15.80;99.90;;;;;;4976505;28;20027;-90
2021/07/16 04:20:14;;;;;;;4.95;2.00;;;15.80;99.90;;;;;;4977116;28;20561;-90
2021/07/16 04:22:39;;;;;;;2.75;1.60;;;15.90;99.90;;;;;;4976638;28;20479;-90
2021/07/16 04:25:06;;;;;;;3.78;1.65;;;15.80;99.90;;;;;;4976511;28;20121;-90
2021/07/16 04:27:32;;;;;;;5.72;1.60;;;15.80;99.90;;;;;;4976797;28;20113;-90
2021/07/16 04:29:58;;;;;;;2.08;1.60;;;15.80;99.90;;;;;;4993900;28;20065;-89
2021/07/16 04:32:24;;;;;;;6.97;1.83;;;15.80;99.90;;;;;;4993844;28;20022;-90
2021/07/16 04:34:50;;;;;;;11.63;1.77;;;15.80;99.90;;;;;;4976318;28;20023;-89
2021/07/16 04:37:16;;;;;;;6.40;1.90;;;15.80;99.90;;;;;;4976517;28;20073;-89
2021/07/16 04:39:42;;;;;;;7.20;1.83;;;15.80;99.90;;;;;;4994514;28;20470;-90
2021/07/16 04:42:08;;;;;;;8.27;2.22;;;15.80;99.90;;;;;;4993989;28;20019;-90
2021/07/16 04:44:34;;;;;;;5.47;1.90;;;16.00;99.90;;;;;;4993778;28;20112;-90
2021/07/16 04:47:00;;;;;;;2.42;1.70;;;16.10;99.90;;;;;;4976237;28;20026;-89
2021/07/16 04:49:26;;;;;;;2.33;1.65;;;16.10;99.90;;;;;;4977428;28;20030;-89
2021/07/16 04:51:52;;;;;;;5.05;1.75;;;16.30;99.90;;;;;;4980667;28;20433;-90
2021/07/16 04:54:18;;;;;;;5.70;2.25;;;16.10;99.90;;;;;;4980354;28;20076;-90
2021/07/16 04:56:44;;;;;;;2.83;1.70;;;15.90;99.90;;;;;;4979486;28;20030;-90
2021/07/16 04:59:10;;;;;;;4.00;1.70;;;15.80;99.90;;;;;;4979527;28;20030;-90
2021/07/16 05:01:36;;;;;;;4.00;1.70;;;15.90;99.90;;;;;;4979290;28;20037;-90
2021/07/16 05:04:02;;;;;;;2.92;1.40;;;16.00;99.90;;;;;;4979343;28;20490;-89
2021/07/16 05:06:27;;;;;;;4.82;1.60;;;16.00;99.90;;;;;;4979209;28;20022;-90
2021/07/16 05:08:54;;;;;;;7.65;1.70;;;16.10;99.90;;;;;;4979175;28;20034;-89
2021/07/16 05:11:21;;;;;;;3.88;1.83;;;16.10;99.90;;;;;;4978923;28;20031;-88
2021/07/16 05:13:47;;;;;;;2.40;1.70;;;16.20;99.90;;;;;;4979141;28;20130;-88
2021/07/16 05:16:14;;;;;;;6.13;1.92;;;16.20;99.90;;;;;;4979232;28;20485;-88
2021/07/16 05:18:41;;;;;;;8.18;2.28;;;16.10;99.90;;;;;;4979231;28;20401;-89
2021/07/16 05:21:09;;;;;;;4.97;1.95;;;16.10;99.90;;;;;;4979011;28;20023;-89
2021/07/16 05:23:35;;;;;;;2.42;1.90;;;16.00;99.90;;;;;;4978944;28;20485;-89
2021/07/16 05:26:01;;;;;;;3.50;2.13;;;16.00;99.90;;;;;;4979371;28;20035;-89
2021/07/16 05:28:27;;;;;;;3.13;2.00;;;16.00;99.90;;;;;;4979139;28;20117;-89
2021/07/16 05:30:53;;;;;;;4.97;2.42;;;16.00;99.90;;;;;;4978761;28;20064;-89
2021/07/16 05:33:20;;;;;;;4.80;1.90;;;16.00;99.90;;;;;;4978794;28;20026;-89
2021/07/16 05:35:46;;;;;;;5.40;2.08;;;16.00;99.90;;;;;;4996134;28;20106;-89
2021/07/16 05:38:12;;;;;;;4.68;2.25;;;16.10;99.90;;;;;;4979453;28;20060;-89
2021/07/16 05:40:38;;;;;;;4.10;2.15;;;16.20;99.90;;;;;;4996553;28;20033;-89
2021/07/16 05:43:08;;;;;;;5.43;2.10;;;16.30;99.90;;;;;;4996029;28;20387;-89
2021/07/16 05:45:35;;;;;;;5.90;2.63;;;16.50;99.90;;;;;;4978626;28;20068;-89
2021/07/16 05:48:03;;;;;;;8.98;2.50;;;16.50;99.90;;;;;;4995950;28;20030;-89
2021/07/16 05:50:29;;;;;;;3.75;2.40;;;16.50;99.90;;;;;;4978561;28;20030;-89
2021/07/16 05:52:55;;;;;;;2.70;2.50;;;16.50;99.90;;;;;;4978247;28;20026;-89
2021/07/16 05:55:21;;;;;;;4.03;2.92;;;16.50;99.90;;;;;;4995855;28;20033;-89
2021/07/16 05:57:47;;;;;;;3.63;2.75;;;16.50;99.90;;;;;;4978573;28;20023;-89
2021/07/16 06:00:13;;;;;;;4.35;2.78;;;16.50;99.90;;;;;;4995446;28;20026;-89
2021/07/16 06:02:39;;;;;;;4.55;2.90;;;16.60;99.90;;;;;;4995598;28;20045;-89
2021/07/16 06:05:05;;;;;;;2.95;2.13;;;16.70;99.90;;;;;;4978171;28;20019;-89
2021/07/16 06:07:31;;;;;;;6.47;2.47;;;16.70;99.90;;;;;;4995695;28;20367;-89
2021/07/16 06:09:57;;;;;;;3.53;2.47;;;16.60;99.90;;;;;;4995574;28;20034;-89
2021/07/16 06:12:23;;;;;;;5.55;2.22;;;16.70;99.90;;;;;;4995540;28;20528;-89
2021/07/16 06:14:55;;;;;;;4.75;2.50;;;16.70;99.90;;;;;;4978493;28;20086;-88
2021/07/16 06:17:22;;;;;;;6.00;2.55;;;16.80;99.90;;;;;;4999172;28;20106;-88
2021/07/16 06:19:47;;;;;;;4.65;2.70;;;16.90;99.90;;;;;;4998014;28;20037;-88
2021/07/16 06:22:13;;;;;;;5.95;2.88;;;17.00;99.90;;;;;;4979254;28;20494;-88
2021/07/16 06:24:39;;;;;;;4.22;2.80;;;17.10;99.90;;;;;;4978930;28;20061;-88
2021/07/16 06:27:05;;;;;;;9.95;3.60;;;17.10;99.90;;;;;;4978277;28;20026;-89
2021/07/16 06:29:31;;;;;;;3.47;3.08;;;17.20;99.90;;;;;;4995232;28;20030;-89
2021/07/16 06:31:56;;;;;;;5.30;3.20;;;17.30;99.90;;;;;;4977796;28;20061;-89
2021/07/16 06:34:22;;;;;;;5.03;3.95;;;17.40;99.90;;;;;;4977720;28;20035;-88
2021/07/16 06:36:48;;;;;;;4.47;3.47;;;17.50;99.90;;;;;;4977882;28;20045;-90
2021/07/16 06:39:13;;;;;;;4.57;3.40;;;17.60;99.90;;;;;;4977543;28;20030;-88
2021/07/16 06:41:39;;;;;;;5.43;4.53;;;17.80;99.90;;;;;;4977576;28;20026;-89
2021/07/16 06:44:06;;;;;;;5.38;4.88;;;17.70;99.90;;;;;;4994947;28;20477;-89
2021/07/16 06:46:32;;;;;;;4.13;3.70;;;17.60;99.90;;;;;;4977837;28;20026;-89
2021/07/16 06:48:58;;;;;;;6.18;5.35;;;17.70;99.90;;;;;;4977705;28;20085;-88
2021/07/16 06:51:23;;;;;;;6.38;5.45;;;17.70;99.90;;;;;;4994741;28;20030;-89
2021/07/16 06:53:49;;;;;;;6.43;4.70;;;17.80;99.90;;;;;;4994699;28;20036;-89
2021/07/16 06:56:15;;;;;;;5.43;4.07;;;17.90;99.90;;;;;;4977328;28;20022;-89
2021/07/16 06:58:40;;;;;;;7.97;4.55;;;18.00;99.90;;;;;;4977144;28;20397;-89
2021/07/16 07:01:07;;;;;;;4.75;4.10;;;18.10;99.90;;;;;;4977172;28;20022;-89
2021/07/16 07:03:33;;;;;;;6.25;4.53;;;18.30;99.90;;;;;;4976910;28;20046;-89
2021/07/16 07:05:59;;;;;;;5.28;4.38;;;18.40;99.90;;;;;;4977148;28;20034;-89
2021/07/16 07:08:24;;;;;;;4.53;4.13;;;18.40;99.90;;;;;;4977101;28;20053;-89
2021/07/16 07:10:50;;;;;;;6.95;5.10;;;18.70;99.90;;;;;;4977076;28;20043;-88
2021/07/16 07:13:17;;;;;;;7.22;4.13;;;18.80;99.90;;;;;;4976750;28;20033;-89
2021/07/16 07:15:42;;;;;;;3.78;3.40;;;18.80;99.90;;;;;;4976823;28;20141;-89
2021/07/16 07:18:09;;;;;;;11.13;6.18;;;19.00;99.90;;;;;;4976817;28;20070;-89
2021/07/16 07:20:36;;;;;;;7.07;6.03;;;18.80;99.90;;;;;;4976907;28;20027;-89
2021/07/16 07:23:03;;;;;;;8.55;5.75;;;18.70;99.90;;;;;;4976695;28;20157;-89
2021/07/16 07:25:30;;;;;;;7.82;6.05;;;18.60;99.90;;;;;;4977090;28;20029;-88
2021/07/16 07:27:56;;;;;;;6.40;5.57;;;18.50;99.90;;;;;;4994206;28;20022;-89
2021/07/16 07:30:23;;;;;;;6.35;5.70;;;18.40;99.90;;;;;;4976537;28;20117;-89
2021/07/16 07:32:49;;;;;;;8.38;5.70;;;18.40;99.90;;;;;;4994042;28;20037;-89
2021/07/16 07:35:15;;;;;;;7.57;4.75;;;18.50;99.90;;;;;;4976521;28;20401;-89
2021/07/16 07:37:41;;;;;;;6.53;5.32;;;18.40;99.90;;;;;;4993976;28;20034;-88
2021/07/16 07:40:12;;;;;;;5.88;4.43;;;18.40;99.90;;;;;;4993922;28;20061;-88
2021/07/16 07:42:38;;;;;;;5.68;4.50;;;18.40;99.90;;;;;;4976474;28;20080;-88
2021/07/16 07:45:08;;;;;;;6.15;3.40;;;18.50;99.90;;;;;;4976455;28;20027;-88
2021/07/16 07:47:34;;;;;;;5.18;3.97;;;18.50;99.90;;;;;;4976741;28;20018;-88
2021/07/16 07:50:03;;;;;;;5.22;4.28;;;18.40;99.90;;;;;;4976340;28;20027;-89
2021/07/16 07:52:28;;;;;;;6.93;3.95;;;18.30;99.90;;;;;;4976392;28;20121;-88
2021/07/16 07:54:54;;;;;;;5.97;3.58;;;18.30;99.90;;;;;;4994010;28;20058;-89
2021/07/16 07:57:20;;;;;;;5.45;4.20;;;18.30;99.90;;;;;;4976413;28;20037;-89
2021/07/16 07:59:46;;;;;;;5.03;3.80;;;18.50;99.90;;;;;;4976166;28;20030;-89
2021/07/16 08:02:12;;;;;;;5.40;3.83;;;18.60;99.90;;;;;;4976203;28;20030;-89
2021/07/16 08:04:38;;;;;;;4.30;2.90;;;18.70;99.90;;;;;;4976350;28;20033;-88
2021/07/16 08:07:05;;;;;;;3.50;3.17;;;18.80;99.90;;;;;;4976275;28;20022;-89
2021/07/16 08:09:31;;;;;;;3.63;2.90;;;18.70;99.90;;;;;;4993599;28;20030;-89
2021/07/16 08:11:58;;;;;;;5.00;3.15;;;18.70;99.90;;;;;;4976191;28;20076;-89
2021/07/16 08:14:24;;;;;;;3.60;2.88;;;18.70;99.90;;;;;;4976137;28;20027;-89
2021/07/16 08:16:49;;;;;;;5.68;3.05;;;18.60;99.90;;;;;;4976258;28;20036;-88
2021/07/16 08:19:17;;;;;;;4.32;3.30;;;18.70;99.90;;;;;;4993581;28;20501;-88
2021/07/16 08:21:52;;;;;;;7.03;3.72;;;18.70;99.90;;;;;;4976357;28;20029;-89
2021/07/16 08:24:19;;;;;;;3.95;3.35;;;18.90;99.90;;;;;;4977170;28;20019;-88
2021/07/16 08:26:46;;;;;;;5.47;3.67;;;19.00;99.90;;;;;;4997533;28;20022;-88
2021/07/16 08:29:13;;;;;;;4.97;3.50;;;19.10;99.90;;;;;;4986951;28;20053;-88
2021/07/16 08:31:40;;;;;;;5.35;3.67;;;19.00;99.90;;;;;;4993102;28;20030;-87
2021/07/16 08:34:06;;;;;;;4.72;3.47;;;18.90;99.90;;;;;;4986515;28;20022;-88
2021/07/16 08:36:32;;;;;;;5.03;3.22;;;19.10;99.90;;;;;;4979962;28;20026;-89
2021/07/16 08:38:58;;;;;;;5.93;3.85;;;19.40;99.90;;;;;;4997550;28;20164;-87
2021/07/16 08:41:24;;;;;;;4.68;4.15;;;19.60;99.90;;;;;;4979947;28;20541;-88
2021/07/16 08:43:51;;;;;;;5.32;3.80;;;19.60;99.90;;;;;;4979406;28;20027;-88
2021/07/16 08:46:18;;;;;;;4.68;3.60;;;19.60;99.90;;;;;;4979554;28;20474;-89
2021/07/16 08:48:47;;;;;;;8.52;3.85;;;19.80;99.90;;;;;;4979665;28;20101;-88
2021/07/16 08:51:17;;;;;;;5.00;3.90;;;20.00;99.90;;;;;;4979453;28;20034;-89
2021/07/16 08:53:42;;;;;;;5.93;3.88;;;20.30;99.90;;;;;;4979603;28;20030;-89
2021/07/16 08:56:09;;;;;;;7.30;3.38;;;20.40;99.90;;;;;;4979530;28;20034;-88
2021/07/16 08:58:35;;;;;;;3.50;3.20;;;20.60;99.90;;;;;;4979287;28;20544;-88
2021/07/16 09:01:00;;;;;;;5.57;3.92;;;20.50;99.90;;;;;;4996779;28;20026;-88
2021/07/16 09:03:28;;;;;;;4.90;3.80;;;20.40;99.90;;;;;;4979011;28;20467;-88
2021/07/16 09:05:54;;;;;;;5.97;3.65;;;20.40;99.90;;;;;;4979143;28;20129;-88
2021/07/16 09:08:22;;;;;;;4.15;3.63;;;20.40;99.90;;;;;;4979086;28;20451;-88
2021/07/16 09:10:57;;;;;;;5.75;4.25;;;20.30;99.90;;;;;;4979097;28;20496;-88
2021/07/16 09:13:25;;;;;;;5.90;4.20;;;20.30;99.90;;;;;;4964322;28;20550;-88
2021/07/16 09:15:53;;;;;;;5.90;4.85;;;20.10;99.90;;;;;;4996511;28;20014;-88
2021/07/16 09:18:22;;;;;;;4.75;4.32;;;20.00;99.90;;;;;;4978841;28;20026;-88
2021/07/16 09:21:02;;;;;;;6.80;4.65;;;19.80;99.90;;;;;;4978900;28;20029;-88
2021/07/16 09:23:37;;;;;;;4.20;3.80;;;19.90;99.90;;;;;;4996262;28;20022;-88
2021/07/16 09:26:11;;;;;;;7.15;4.38;;;19.80;99.90;;;;;;4978727;28;20037;-88
2021/07/16 09:28:40;;;;;;;4.53;3.67;;;19.70;99.90;;;;;;4978786;28;20109;-88
2021/07/16 09:31:17;;;;;;;4.85;3.60;;;19.80;99.90;;;;;;4978836;28;20117;-88
2021/07/16 09:33:48;;;;;;;4.40;4.00;;;19.80;99.90;;;;;;4978959;28;20035;-89
2021/07/16 09:36:25;;;;;;;7.88;4.03;;;20.20;99.90;;;;;;4995732;28;20026;-89
2021/07/16 09:39:03;;;;;;;5.07;3.10;;;20.50;99.90;;;;;;4978739;28;20122;-84
2021/07/16 09:41:29;;;;;;;3.80;3.40;;;20.50;99.90;;;;;;4978585;28;20430;-89
2021/07/16 09:44:00;;;;;;;4.18;3.22;;;20.30;99.90;;;;;;4996021;28;20072;-88
2021/07/16 09:46:26;;;;;;;5.45;2.90;;;20.30;99.90;;;;;;4978551;28;20069;-88
2021/07/16 09:48:52;;;;;;;3.63;2.50;;;20.20;99.90;;;;;;4978332;28;20030;-88
2021/07/16 09:51:27;;;;;;;4.10;3.42;;;20.00;99.90;;;;;;4995806;28;20486;-88
2021/07/16 09:54:05;;;;;;;4.13;2.92;;;20.10;99.90;;;;;;4979189;28;20026;-89
2021/07/16 09:56:33;;;;;;;4.10;2.83;;;20.70;99.90;;;;;;4995960;28;20486;-89
2021/07/16 09:59:13;;;;;;;5.25;3.15;;;21.20;99.90;;;;;;4978231;28;20487;-89
2021/07/16 10:01:41;;;;;;;3.25;2.95;;;21.50;99.90;;;;;;4978800;28;20114;-89
2021/07/16 10:04:23;;;;;;;6.30;3.10;;;21.50;99.90;;;;;;4995519;28;20483;-88
2021/07/16 10:06:51;;;;;;;4.90;3.03;;;22.10;99.90;;;;;;4978227;28;20076;-89
2021/07/16 10:09:18;;;;;;;3.85;3.28;;;22.60;99.90;;;;;;4977962;28;20022;-89
2021/07/16 10:11:53;;;;;;;4.00;2.90;;;22.00;99.90;;;;;;4977994;28;20022;-89
2021/07/16 10:14:19;;;;;;;2.70;2.25;;;21.70;99.90;;;;;;4978222;28;20514;-89
2021/07/16 10:16:47;;;;;;;3.92;1.70;;;22.10;99.90;;;;;;4996137;28;20060;-89
2021/07/16 10:19:15;;;;;;;5.38;1.98;;;22.60;99.90;;;;;;4977748;28;20038;-89
2021/07/16 10:21:41;;;;;;;2.40;1.70;;;23.00;99.90;;;;;;4978035;28;20497;-89
2021/07/16 10:24:08;;;;;;;2.65;1.90;;;23.10;99.90;;;;;;4977681;28;20482;-90
2021/07/16 10:26:34;;;;;;;4.07;1.70;;;23.20;99.90;;;;;;4978057;28;20466;-89
2021/07/16 10:29:00;;;;;;;2.22;1.63;;;23.80;99.90;;;;;;4977734;28;20037;-89
2021/07/16 10:31:37;;;;;;;5.78;1.67;;;24.10;99.90;;;;;;4977758;28;20030;-90
2021/07/16 10:34:06;;;;;;;3.67;1.70;;;24.20;99.90;;;;;;4995784;28;20030;-90
2021/07/16 10:36:37;;;;;;;5.25;2.22;;;24.20;99.90;;;;;;4977885;28;20026;-89
2021/07/16 10:39:20;;;;;;;2.90;2.17;;;23.40;99.90;;;;;;4977483;28;20034;-89
2021/07/16 10:41:46;;;;;;;13.25;3.97;;;23.90;99.90;;;;;;4985726;28;20022;-88
2021/07/16 10:44:13;;;;;;;2.33;1.80;;;23.70;99.90;;;;;;4990935;28;20094;-88
2021/07/16 10:46:44;;;;;;;3.33;1.75;;;24.30;99.90;;;;;;4981876;28;20023;-89
2021/07/16 10:49:14;;;;;;;3.00;1.63;;;23.80;99.90;;;;;;4995290;28;20105;-89
2021/07/16 10:51:41;;;;;;;3.45;1.90;;;23.20;99.90;;;;;;4977380;28;20022;-89
2021/07/16 10:54:11;;;;;;;1.45;1.17;;;23.00;99.90;;;;;;4977265;28;20435;-89
2021/07/16 10:56:46;;;;;;;3.22;1.50;;;23.00;99.90;;;;;;4977455;28;20478;-89
2021/07/16 10:59:45;;;;;;;1.50;1.08;;;23.70;99.90;;;;;;4977251;28;20030;-89
2021/07/16 11:02:38;;;;;;;2.20;1.05;;;23.60;99.90;;;;;;4994353;28;20023;-89
2021/07/16 11:05:36;;;;;;;1.30;1.08;;;24.00;99.90;;;;;;4977708;28;20022;-87
2021/07/16 11:08:03;;;;;;;6.55;0.75;;;24.90;99.90;;;;;;4935134;28;20041;-87
2021/07/16 11:10:44;;;;;;;1.73;0.93;;;25.20;99.90;;;;;;4976780;28;20157;-87
2021/07/16 11:13:38;;;;;;;4.55;0.80;;;25.50;99.90;;;;;;4976921;28;20117;-88
2021/07/16 11:16:15;;;;;;;2.17;0.82;;;25.50;99.90;;;;;;4976843;28;20077;-88
2021/07/16 11:19:15;;;;;;;1.58;1.00;;;25.20;99.90;;;;;;4994134;28;20049;-87
2021/07/16 11:21:47;;;;;;;6.18;0.90;;;25.00;99.90;;;;;;4976779;28;20037;-87
2021/07/16 11:26:57;;;;;;;3.60;1.13;;;23.90;99.90;;;;;;4994531;28;20062;-87
2021/07/16 11:29:37;;;;;;;1.20;0.93;;;23.60;99.90;;;;;;4977353;28;20511;-88
2021/07/16 11:32:12;;;;;;;2.25;1.00;;;24.20;99.90;;;;;;4976696;28;20036;-88
2021/07/16 11:34:50;;;;;;;2.85;1.30;;;24.60;99.90;;;;;;4976708;28;20077;-88
2021/07/16 11:37:40;;;;;;;7.03;1.33;;;24.50;99.90;;;;;;4976670;28;20030;-87
2021/07/16 11:40:07;;;;;;;2.90;1.42;;;24.20;99.90;;;;;;4993902;28;20023;-87
2021/07/16 11:42:36;;;;;;;4.00;1.10;;;25.20;99.90;;;;;;4976504;28;20026;-87
2021/07/16 11:45:06;;;;;;;1.15;1.05;;;25.50;99.90;;;;;;4976532;28;20026;-87
2021/07/16 11:47:32;;;;;;;1.67;1.10;;;25.50;99.90;;;;;;4978582;28;20080;-88
2021/07/16 11:50:00;;;;;;;3.10;0.85;;;24.60;99.90;;;;;;4993841;28;20410;-88
2021/07/16 11:52:29;;;;;;;1.48;0.90;;;24.20;99.90;;;;;;4976450;28;20030;-88
2021/07/16 11:55:03;;;;;;;1.92;1.10;;;25.20;99.90;;;;;;4976390;28;20029;-87
2021/07/16 11:57:29;;;;;;;1.67;0.98;;;25.80;99.90;;;;;;4993891;28;20029;-87
2021/07/16 11:59:55;;;;;;;2.80;1.00;;;26.40;99.90;;;;;;4979929;28;20026;-88
2021/07/16 12:02:22;;;;;;;2.10;0.98;;;26.30;99.90;;;;;;4980139;28;20042;-87
2021/07/16 12:04:55;;;;;;;1.17;0.68;;;26.90;99.90;;;;;;4980272;28;20574;-87
2021/07/16 12:07:21;;;;;;;1.63;0.90;;;27.20;99.90;;;;;;4980800;28;20182;-87
2021/07/16 12:09:48;;;;;;;4.00;0.70;;;26.90;99.90;;;;;;4980037;28;20026;-87
2021/07/16 12:12:25;;;;;;;1.15;0.65;;;26.80;99.90;;;;;;4997560;28;20107;-87
2021/07/16 12:14:59;;;;;;;0.60;0.60;;;26.80;99.90;;;;;;4980115;28;20386;-88
2021/07/16 12:17:30;;;;;;;2.65;0.80;;;28.00;99.90;;;;;;4980004;28;20038;-88
2021/07/16 12:19:58;;;;;;;1.10;0.80;;;27.60;99.90;;;;;;4979887;28;20038;-88
2021/07/16 12:22:29;;;;;;;2.38;0.80;;;27.00;99.90;;;;;;4963774;28;20137;-88
2021/07/16 12:24:56;;;;;;;3.25;0.70;;;26.20;99.90;;;;;;4997666;28;20030;-88
2021/07/16 12:27:23;;;;;;;1.83;1.00;;;25.40;99.90;;;;;;4997272;28;20386;-88
2021/07/16 12:30:00;;;;;;;1.27;0.60;;;25.60;99.90;;;;;;4997277;28;20366;-87
2021/07/16 12:32:34;;;;;;;1.00;0.70;;;24.70;99.90;;;;;;4979683;28;20121;-87
2021/07/16 12:34:59;;;;;;;0.77;0.70;;;24.20;99.90;;;;;;4979771;28;20121;-87
2021/07/16 12:37:36;;;;;;;1.42;0.80;;;23.80;99.90;;;;;;4979811;28;20058;-87
2021/07/16 12:40:05;;;;;;;1.15;0.65;;;23.40;99.90;;;;;;4979648;28;20034;-86
2021/07/16 12:42:30;;;;;;;1.35;0.70;;;23.30;99.90;;;;;;4979524;28;20490;-87
2021/07/16 12:45:16;;;;;;;1.33;0.80;;;23.20;99.90;;;;;;4979532;28;20050;-87
2021/07/16 12:47:51;;;;;;;4.55;0.70;;;23.10;99.90;;;;;;4979308;28;20035;-87
2021/07/16 12:50:22;;;;;;;3.17;0.70;;;22.90;99.90;;;;;;4979482;28;20058;-87
2021/07/16 12:52:56;;;;;;;4.93;0.80;;;22.80;99.90;;;;;;4979440;28;20034;-87